Time;durP1;ratioP1;P1;durP2;ratioP2;P2;SDS_P1;SDS_P2;PMS_P1;PMS_P2;Temp;Humidity;BMP_temperature;BMP_pressure;BME280_temperature;BME280_humidity;BME280_pressure;Samples;Min_cycle;Max_cycle;Signal;HPM_P1;HPM_P2
2022/06/16 00:02:26;;;;;;;;;;;;;;;22.10;41.47;100715.91;5359158;32;35200;-69
2022/06/16 00:05:29;;;;;;;;;;;;;;;20.96;43.68;100712.47;5340851;32;44554;-70
2022/06/16 00:08:31;;;;;;;;;;;;;;;21.51;42.80;100715.31;5355356;32;34688;-69
2022/06/16 00:11:33;;;;;;;;;;;;;;;21.09;43.34;100713.22;5344905;32;36191;-69
2022/06/16 00:14:35;;;;;;;;;;;;;;;20.92;44.38;100711.00;5340244;32;34835;-68
2022/06/16 00:17:37;;;;;;;;;;;;;;;20.57;45.30;100707.50;5357193;32;35344;-69
2022/06/16 00:20:39;;;;;;;;;;;;;;;20.55;45.74;100712.97;5341925;32;35134;-68
2022/06/16 00:23:41;;;;;;;;;;;;;;;21.17;43.87;100704.59;5359161;32;34852;-71
2022/06/16 00:26:43;;;;;;;;;;;;;;;20.53;45.90;100714.91;5344259;32;34922;-71
2022/06/16 00:29:45;;;;;;;;;;;;;;;20.44;46.19;100702.22;5356138;32;34911;-72
2022/06/16 00:32:47;;;;;;;;;;;;;;;20.19;46.59;100700.53;5351376;32;36191;-67
2022/06/16 00:35:49;;;;;;;;;;;;;;;20.34;46.03;100693.19;5341833;32;35036;-67
2022/06/16 00:38:51;;;;;;;;;;;;;;;19.94;48.55;100706.81;5350018;32;34802;-70
2022/06/16 00:41:52;;;;;;;;;;;;;;;20.52;47.19;100698.03;5333695;32;35758;-72
2022/06/16 00:44:56;;;;;;;;;;;;;;;21.55;43.53;100688.22;5360191;32;34762;-68
2022/06/16 00:47:58;;;;;;;;;;;;;;;21.85;42.29;100684.91;5345116;32;45265;-71
2022/06/16 00:51:00;;;;;;;;;;;;;;;21.35;43.62;100679.12;5353239;32;34997;-71
2022/06/16 00:54:05;;;;;;;;;;;;;;;21.60;42.43;100683.38;5351949;32;35502;-71
2022/06/16 00:57:08;;;;;;;;;;;;;;;21.68;41.97;100688.09;5342221;32;35110;-68
2022/06/16 01:00:34;;;;;;;;;;;;;;;21.54;42.45;100683.84;5360165;32;34246;-68
2022/06/16 01:06:55;;;;;;;;;;;;;;;21.49;42.45;100664.66;5346540;32;35471;-68
2022/06/16 01:09:57;;;;;;;;;;;;;;;20.21;45.50;100674.56;5350062;32;44145;-71
2022/06/16 01:16:30;;;;;;;;;;;;;;;20.14;46.98;100662.66;5358531;32;44967;-72
2022/06/16 01:19:38;;;;;;;;;;;;;;;19.84;49.61;100663.97;5341506;32;34543;-68
2022/06/16 01:22:43;;;;;;;;;;;;;;;19.69;49.80;100665.91;5353854;32;34644;-68
2022/06/16 01:26:00;;;;;;;;;;;;;;;20.39;46.85;100646.50;5342176;32;35637;-71
2022/06/16 01:29:05;;;;;;;;;;;;;;;20.36;47.70;100644.06;5336727;32;44855;-69
2022/06/16 01:32:16;;;;;;;;;;;;;;;19.81;49.60;100661.50;5360871;32;34914;-70
2022/06/16 01:35:44;;;;;;;;;;;;;;;19.89;49.65;100660.94;5343043;32;35044;-68
2022/06/16 01:38:50;;;;;;;;;;;;;;;19.54;49.93;100658.16;5336067;32;34686;-68
2022/06/16 01:42:21;;;;;;;;;;;;;;;19.61;49.80;100659.44;5334684;32;37670;-69
2022/06/16 01:45:37;;;;;;;;;;;;;;;19.43;49.87;100659.78;5336457;32;35384;-73
2022/06/16 01:48:41;;;;;;;;;;;;;;;19.32;50.07;100662.38;5355908;32;35715;-71
2022/06/16 01:51:46;;;;;;;;;;;;;;;19.35;49.59;100662.16;5344005;32;35877;-69
2022/06/16 01:55:14;;;;;;;;;;;;;;;19.37;50.15;100664.69;5348668;32;35895;-71
2022/06/16 01:58:27;;;;;;;;;;;;;;;19.27;50.32;100659.19;5356855;32;35450;-68
2022/06/16 02:01:30;;;;;;;;;;;;;;;19.10;50.77;100656.84;5344300;32;44719;-68
2022/06/16 02:04:36;;;;;;;;;;;;;;;18.99;51.28;100659.41;5357333;32;34967;-68
2022/06/16 02:07:39;;;;;;;;;;;;;;;19.12;51.48;100657.59;5342479;32;34513;-72
2022/06/16 02:10:45;;;;;;;;;;;;;;;18.76;52.51;100659.19;5345569;32;36929;-72
2022/06/16 02:13:51;;;;;;;;;;;;;;;18.90;52.28;100658.25;5350665;32;35820;-71
2022/06/16 02:16:53;;;;;;;;;;;;;;;19.32;51.15;100650.84;5341923;32;34999;-73
2022/06/16 02:19:55;;;;;;;;;;;;;;;19.06;51.10;100644.69;5358374;32;34183;-73
2022/06/16 02:22:57;;;;;;;;;;;;;;;19.20;51.51;100655.25;5343289;32;36900;-72
2022/06/16 02:25:59;;;;;;;;;;;;;;;18.86;53.35;100664.72;5358453;32;44844;-68
2022/06/16 02:29:02;;;;;;;;;;;;;;;19.37;51.63;100649.56;5340845;32;34761;-72
2022/06/16 02:32:23;;;;;;;;;;;;;;;18.60;54.15;100654.03;5341470;32;35392;-67
2022/06/16 02:35:34;;;;;;;;;;;;;;;18.81;54.12;100659.75;5359998;32;34278;-68
2022/06/16 02:38:56;;;;;;;;;;;;;;;19.50;51.99;100654.84;5333072;32;44553;-68
2022/06/16 02:42:08;;;;;;;;;;;;;;;19.41;52.40;100661.72;5341149;32;43765;-68
2022/06/16 02:45:13;;;;;;;;;;;;;;;19.05;52.76;100650.97;5346227;32;35174;-68
2022/06/16 02:48:17;;;;;;;;;;;;;;;19.61;50.96;100654.13;5343958;32;34270;-68
2022/06/16 02:51:21;;;;;;;;;;;;;;;19.12;52.88;100660.25;5358543;32;35347;-69
2022/06/16 02:54:44;;;;;;;;;;;;;;;18.82;53.65;100658.78;5343604;32;34508;-69
2022/06/16 02:57:50;;;;;;;;;;;;;;;18.62;54.63;100664.59;5346909;32;35022;-68
2022/06/16 03:00:53;;;;;;;;;;;;;;;18.81;54.47;100673.06;5343746;32;36119;-71
2022/06/16 03:04:03;;;;;;;;;;;;;;;18.72;54.63;100667.50;5341342;32;34402;-70
2022/06/16 03:07:05;;;;;;;;;;;;;;;19.39;52.15;100658.31;5359228;32;46737;-68
2022/06/16 03:10:07;;;;;;;;;;;;;;;20.06;50.09;100651.72;5342135;32;35492;-72
2022/06/16 03:13:09;;;;;;;;;;;;;;;20.58;48.12;100653.13;5353664;32;34897;-69
2022/06/16 03:16:11;;;;;;;;;;;;;;;19.25;51.81;100666.41;5341372;32;35659;-71
2022/06/16 03:19:13;;;;;;;;;;;;;;;19.23;52.38;100668.34;5357201;32;36838;-70
2022/06/16 03:22:18;;;;;;;;;;;;;;;18.44;55.68;100672.00;5345287;32;34880;-69
2022/06/16 03:25:19;;;;;;;;;;;;;;;19.04;54.12;100667.94;5343693;32;35103;-69
2022/06/16 03:28:21;;;;;;;;;;;;;;;18.66;54.98;100663.41;5359111;32;35662;-72
2022/06/16 03:31:23;;;;;;;;;;;;;;;18.60;55.73;100671.81;5341817;32;35628;-70
2022/06/16 03:34:25;;;;;;;;;;;;;;;18.11;56.74;100677.78;5357524;32;34407;-73
2022/06/16 03:37:27;;;;;;;;;;;;;;;18.17;56.66;100671.19;5342787;32;45487;-72
2022/06/16 03:40:29;;;;;;;;;;;;;;;18.77;55.02;100679.53;5333917;32;34783;-71
2022/06/16 03:43:31;;;;;;;;;;;;;;;18.41;55.98;100675.72;5345334;32;35109;-69
2022/06/16 03:46:33;;;;;;;;;;;;;;;18.61;55.68;100670.84;5342347;32;34750;-73
2022/06/16 03:49:35;;;;;;;;;;;;;;;18.43;55.96;100678.28;5358149;32;35312;-72
2022/06/16 03:52:37;;;;;;;;;;;;;;;18.72;54.83;100681.66;5343212;32;34860;-72
2022/06/16 03:55:39;;;;;;;;;;;;;;;19.10;53.02;100678.16;5360046;32;35173;-74
2022/06/16 03:58:41;;;;;;;;;;;;;;;19.24;52.46;100674.53;5344263;32;34959;-73
2022/06/16 04:01:42;;;;;;;;;;;;;;;18.96;53.35;100681.78;5362272;32;34976;-72
2022/06/16 04:04:45;;;;;;;;;;;;;;;19.71;51.33;100684.50;5352440;32;35232;-71
2022/06/16 04:07:47;;;;;;;;;;;;;;;18.69;53.83;100689.88;5347102;32;35775;-69
2022/06/16 04:10:49;;;;;;;;;;;;;;;19.00;53.35;100690.41;5363142;32;35466;-72
2022/06/16 04:13:51;;;;;;;;;;;;;;;19.18;52.73;100691.78;5345468;32;34696;-68
2022/06/16 04:16:54;;;;;;;;;;;;;;;19.06;53.12;100703.28;5362397;32;34559;-69
2022/06/16 04:20:14;;;;;;;;;;;;;;;19.65;51.33;100698.28;5348131;32;34846;-68
2022/06/16 04:23:16;;;;;;;;;;;;;;;19.35;52.39;100703.94;5349078;32;34466;-70
2022/06/16 04:26:18;;;;;;;;;;;;;;;19.61;51.53;100699.44;5361187;32;34938;-70
2022/06/16 04:29:20;;;;;;;;;;;;;;;20.15;49.17;100689.22;5346778;32;34731;-69
2022/06/16 04:32:22;;;;;;;;;;;;;;;21.97;44.81;100687.56;5364484;32;35716;-68
2022/06/16 04:35:24;;;;;;;;;;;;;;;21.27;46.56;100688.69;5345978;32;34672;-72
2022/06/16 04:38:26;;;;;;;;;;;;;;;22.05;43.90;100685.09;5354720;32;34172;-70
2022/06/16 04:41:28;;;;;;;;;;;;;;;21.94;44.49;100685.97;5332702;32;44517;-72
2022/06/16 04:44:31;;;;;;;;;;;;;;;24.11;38.91;100687.84;5349429;32;35025;-69
2022/06/16 04:47:33;;;;;;;;;;;;;;;24.29;38.35;100681.63;5360779;32;35703;-71
2022/06/16 04:50:36;;;;;;;;;;;;;;;24.35;38.12;100680.25;5347440;32;34746;-73
2022/06/16 04:53:37;;;;;;;;;;;;;;;24.24;38.51;100670.44;5362970;32;35347;-69
2022/06/16 04:56:39;;;;;;;;;;;;;;;22.91;41.54;100684.97;5346883;32;34126;-73
2022/06/16 04:59:41;;;;;;;;;;;;;;;23.73;39.33;100684.94;5364010;32;35143;-71
2022/06/16 05:02:43;;;;;;;;;;;;;;;24.20;39.02;100679.75;5347977;32;36754;-72
2022/06/16 05:05:46;;;;;;;;;;;;;;;25.44;36.35;100678.00;5346285;32;34668;-67
2022/06/16 05:08:48;;;;;;;;;;;;;;;24.45;36.71;100673.00;5361902;32;34647;-65
2022/06/16 05:11:50;;;;;;;;;;;;;;;25.41;35.26;100672.94;5342231;32;36188;-64
2022/06/16 05:14:52;;;;;;;;;;;;;;;24.94;36.04;100676.47;5355827;32;34869;-64
2022/06/16 05:17:54;;;;;;;;;;;;;;;25.46;35.41;100679.56;5341527;32;37018;-67
2022/06/16 05:21:02;;;;;;;;;;;;;;;26.51;32.87;100667.41;5357911;32;34445;-67
2022/06/16 05:24:04;;;;;;;;;;;;;;;25.67;34.72;100665.84;5343312;32;45454;-68
2022/06/16 05:27:07;;;;;;;;;;;;;;;26.50;32.33;100663.87;5344692;32;34999;-68
2022/06/16 05:30:09;;;;;;;;;;;;;;;26.12;33.29;100665.03;5358862;32;34537;-65
2022/06/16 05:33:11;;;;;;;;;;;;;;;27.22;31.20;100661.84;5341522;32;35229;-67
2022/06/16 05:36:13;;;;;;;;;;;;;;;27.65;29.68;100665.41;5361040;32;35045;-65
2022/06/16 05:39:17;;;;;;;;;;;;;;;26.35;32.05;100660.87;5325477;32;35545;-67
2022/06/16 05:42:19;;;;;;;;;;;;;;;25.17;34.28;100668.06;5347281;32;35060;-69
2022/06/16 05:45:21;;;;;;;;;;;;;;;26.99;31.02;100653.44;5345650;32;35101;-69
2022/06/16 05:48:23;;;;;;;;;;;;;;;27.72;30.43;100666.47;5345346;32;36988;-66
2022/06/16 05:51:25;;;;;;;;;;;;;;;26.85;31.50;100659.41;5355951;32;35506;-67
2022/06/16 05:54:27;;;;;;;;;;;;;;;27.64;30.33;100658.31;5343346;32;43633;-69
2022/06/16 05:57:29;;;;;;;;;;;;;;;28.55;29.01;100655.62;5357335;32;44456;-70
2022/06/16 06:00:31;;;;;;;;;;;;;;;27.80;30.26;100658.38;5339023;32;37661;-68
2022/06/16 06:03:33;;;;;;;;;;;;;;;27.04;31.13;100655.62;5354944;32;32901;-70
2022/06/16 06:06:35;;;;;;;;;;;;;;;27.96;29.48;100660.28;5344980;32;36018;-66
2022/06/16 06:16:37;;;;;;;;;;;;;;;30.89;25.46;100647.50;5343192;32;35218;-65
2022/06/16 06:19:39;;;;;;;;;;;;;;;29.64;27.16;100655.88;5352237;32;34485;-64
2022/06/16 06:22:41;;;;;;;;;;;;;;;28.38;29.22;100643.97;5349414;32;37106;-68
2022/06/16 06:25:43;;;;;;;;;;;;;;;30.41;26.15;100646.91;5346046;32;34258;-68
2022/06/16 06:28:45;;;;;;;;;;;;;;;30.49;25.97;100649.53;5358696;32;34232;-68
2022/06/16 06:31:47;;;;;;;;;;;;;;;32.22;23.65;100639.16;5349564;32;34816;-71
2022/06/16 06:34:49;;;;;;;;;;;;;;;31.85;24.40;100634.78;5361866;32;35725;-68
2022/06/16 06:37:51;;;;;;;;;;;;;;;29.83;27.21;100645.62;5343200;32;34274;-72
2022/06/16 06:40:53;;;;;;;;;;;;;;;31.79;25.04;100652.72;5330943;32;34206;-67
2022/06/16 06:43:55;;;;;;;;;;;;;;;32.37;24.06;100649.97;5350998;32;33223;-68
2022/06/16 06:46:58;;;;;;;;;;;;;;;30.77;26.59;100657.09;5342208;32;43366;-72
2022/06/16 06:50:00;;;;;;;;;;;;;;;29.77;28.02;100658.00;5357958;32;35592;-71
2022/06/16 06:53:02;;;;;;;;;;;;;;;30.05;27.70;100657.50;5345268;32;35543;-67
2022/06/16 06:56:04;;;;;;;;;;;;;;;30.53;26.84;100650.87;5356905;32;34148;-70
2022/06/16 06:59:07;;;;;;;;;;;;;;;30.98;25.98;100652.66;5342987;32;34295;-68
2022/06/16 07:02:13;;;;;;;;;;;;;;;30.01;27.23;100651.56;5343254;32;34504;-66
2022/06/16 07:05:16;;;;;;;;;;;;;;;30.96;25.86;100643.84;5352120;32;35736;-70
2022/06/16 07:08:20;;;;;;;;;;;;;;;33.01;22.96;100636.25;5337764;32;35260;-73
2022/06/16 07:11:22;;;;;;;;;;;;;;;33.96;21.46;100642.78;5350367;32;33668;-70
2022/06/16 07:14:25;;;;;;;;;;;;;;;31.42;24.61;100651.81;5341269;32;34301;-70
2022/06/16 07:17:27;;;;;;;;;;;;;;;33.81;21.73;100643.72;5353098;32;34002;-76
2022/06/16 07:20:30;;;;;;;;;;;;;;;31.34;24.72;100641.06;5347097;32;44893;-73
2022/06/16 07:23:32;;;;;;;;;;;;;;;32.31;23.68;100638.81;5336283;32;35214;-72
2022/06/16 07:26:35;;;;;;;;;;;;;;;33.56;22.51;100629.00;5357136;32;34435;-70
2022/06/16 07:29:37;;;;;;;;;;;;;;;31.75;24.82;100644.09;5345520;32;36171;-74
2022/06/16 07:32:46;;;;;;;;;;;;;;;34.36;21.52;100624.56;5347302;32;34256;-72
2022/06/16 07:35:48;;;;;;;;;;;;;;;33.35;23.01;100628.03;5341479;32;34588;-72
2022/06/16 07:38:50;;;;;;;;;;;;;;;33.51;22.86;100629.59;5327993;32;231665;-72
2022/06/16 07:41:52;;;;;;;;;;;;;;;32.84;23.87;100630.22;5330674;32;34868;-72
2022/06/16 07:44:54;;;;;;;;;;;;;;;34.15;22.13;100628.31;5344919;32;35584;-70
2022/06/16 07:47:57;;;;;;;;;;;;;;;34.97;21.07;100621.59;5354677;32;34133;-74
2022/06/16 07:50:59;;;;;;;;;;;;;;;34.19;22.33;100621.38;5343590;32;44771;-72
2022/06/16 07:54:01;;;;;;;;;;;;;;;32.63;24.05;100628.41;5358847;32;35477;-76
2022/06/16 07:57:03;;;;;;;;;;;;;;;33.60;22.54;100617.47;5328424;32;34462;-68
2022/06/16 08:00:05;;;;;;;;;;;;;;;36.03;19.32;100616.50;5357709;32;34556;-70
2022/06/16 08:03:07;;;;;;;;;;;;;;;36.63;17.72;100620.66;5344474;32;36770;-77
2022/06/16 08:06:11;;;;;;;;;;;;;;;35.46;18.25;100614.72;5330537;32;35378;-72
2022/06/16 08:09:13;;;;;;;;;;;;;;;34.86;18.88;100608.56;5352656;32;36909;-71
2022/06/16 08:12:15;;;;;;;;;;;;;;;33.33;20.29;100621.13;5339361;32;36322;-73
2022/06/16 08:15:18;;;;;;;;;;;;;;;33.96;18.41;100601.88;5356759;32;34431;-73
2022/06/16 08:18:22;;;;;;;;;;;;;;;37.14;15.93;100602.00;5343980;32;36641;-76
2022/06/16 08:21:23;;;;;;;;;;;;;;;36.89;15.13;100595.78;5350825;32;36022;-70
2022/06/16 08:24:25;;;;;;;;;;;;;;;33.90;18.28;100607.06;5348827;32;34440;-66
2022/06/16 08:27:29;;;;;;;;;;;;;;;34.99;16.56;100601.22;5334531;32;45958;-69
2022/06/16 08:30:31;;;;;;;;;;;;;;;34.48;17.18;100606.53;5334883;32;34307;-75
2022/06/16 08:33:37;;;;;;;;;;;;;;;34.08;18.07;100606.50;5348524;32;34406;-82
2022/06/16 08:36:40;;;;;;;;;;;;;;;35.69;17.25;100614.19;5358529;32;35372;-70
2022/06/16 08:39:42;;;;;;;;;;;;;;;36.70;15.84;100616.81;5327454;32;35266;-91
2022/06/16 08:42:52;;;;;;;;;;;;;;;33.07;19.73;100624.56;5339938;32;34439;-74
2022/06/16 08:45:55;;;;;;;;;;;;;;;35.04;17.67;100614.25;5355876;32;35343;-70
2022/06/16 08:49:19;;;;;;;;;;;;;;;36.45;16.72;100619.56;5343911;32;38317;-78
2022/06/16 08:52:28;;;;;;;;;;;;;;;35.81;17.59;100617.91;5357341;32;35800;-68
2022/06/16 08:55:38;;;;;;;;;;;;;;;32.54;20.30;100613.28;5345032;32;47394;-68
2022/06/16 08:58:58;;;;;;;;;;;;;;;33.26;19.71;100612.09;5348784;32;34277;-68
2022/06/16 09:02:03;;;;;;;;;;;;;;;37.05;15.79;100608.88;5351320;32;46579;-68
2022/06/16 09:05:08;;;;;;;;;;;;;;;33.88;18.98;100611.06;5342456;32;34537;-68
2022/06/16 09:08:29;;;;;;;;;;;;;;;35.07;17.79;100618.41;5353043;32;35149;-70
2022/06/16 09:11:36;;;;;;;;;;;;;;;36.92;15.29;100614.50;5343024;32;44558;-70
2022/06/16 09:18:11;;;;;;;;;;;;;;;36.40;15.59;100605.72;5353623;32;44696;-69
2022/06/16 09:21:25;;;;;;;;;;;;;;;34.10;18.10;100603.56;5342906;32;34734;-70
2022/06/16 09:24:33;;;;;;;;;;;;;;;35.13;16.91;100610.19;5355849;32;46546;-71
2022/06/16 09:27:41;;;;;;;;;;;;;;;37.52;14.53;100598.19;5345769;32;35497;-72
2022/06/16 09:30:46;;;;;;;;;;;;;;;35.24;16.77;100605.97;5345497;32;34896;-71
2022/06/16 09:33:53;;;;;;;;;;;;;;;38.20;13.91;100592.34;5356901;32;35720;-73
2022/06/16 09:36:58;;;;;;;;;;;;;;;36.44;15.09;100595.16;5342861;32;35026;-72
2022/06/16 09:40:02;;;;;;;;;;;;;;;36.90;15.07;100593.88;5339297;32;44656;-67
2022/06/16 09:43:10;;;;;;;;;;;;;;;37.34;14.34;100590.00;5343562;32;34523;-67
2022/06/16 09:46:16;;;;;;;;;;;;;;;37.20;14.40;100591.22;5354881;32;34424;-71
2022/06/16 09:49:34;;;;;;;;;;;;;;;37.00;14.51;100584.06;5351918;32;35626;-72
2022/06/16 09:52:56;;;;;;;;;;;;;;;37.57;14.62;100575.56;5345140;32;34744;-72
2022/06/16 09:56:03;;;;;;;;;;;;;;;37.88;13.94;100569.03;5357396;32;45955;-71
2022/06/16 09:59:13;;;;;;;;;;;;;;;37.78;14.13;100569.53;5347320;32;35705;-70
2022/06/16 10:02:19;;;;;;;;;;;;;;;37.83;13.98;100566.13;5324569;32;35112;-70
2022/06/16 10:05:34;;;;;;;;;;;;;;;35.68;15.47;100590.63;5350434;32;35493;-75
2022/06/16 10:08:55;;;;;;;;;;;;;;;36.13;15.04;100566.75;5346195;32;44468;-71
2022/06/16 10:11:56;;;;;;;;;;;;;;;37.13;14.62;100556.50;5351293;32;36155;-74
2022/06/16 10:15:04;;;;;;;;;;;;;;;37.60;13.40;100573.19;5344238;32;44681;-73
2022/06/16 10:18:09;;;;;;;;;;;;;;;35.02;15.68;100580.81;5348244;32;34312;-66
2022/06/16 10:21:11;;;;;;;;;;;;;;;34.74;15.71;100568.28;5348451;32;34328;-74
2022/06/16 10:24:12;;;;;;;;;;;;;;;33.97;16.95;100560.75;5343751;32;34408;-69
2022/06/16 10:27:15;;;;;;;;;;;;;;;35.49;15.44;100571.41;5354398;32;34236;-78
2022/06/16 10:30:25;;;;;;;;;;;;;;;37.41;13.69;100566.91;5345999;32;35740;-69
2022/06/16 10:33:31;;;;;;;;;;;;;;;37.40;13.95;100569.88;5351756;32;35416;-69
2022/06/16 10:36:33;;;;;;;;;;;;;;;39.75;11.92;100574.31;5339052;32;44447;-73
2022/06/16 10:39:40;;;;;;;;;;;;;;;35.44;15.42;100573.94;5328108;32;34868;-72
2022/06/16 10:42:46;;;;;;;;;;;;;;;35.55;14.71;100566.94;5352707;32;35546;-70
2022/06/16 10:46:23;;;;;;;;;;;;;;;35.27;15.28;100572.75;5344873;32;33724;-71
2022/06/16 10:49:27;;;;;;;;;;;;;;;37.68;13.38;100572.87;5323014;32;32662;-65
2022/06/16 10:52:38;;;;;;;;;;;;;;;39.59;12.02;100563.22;5344326;32;44617;-67
2022/06/16 10:55:42;;;;;;;;;;;;;;;40.77;10.98;100555.81;5341651;32;34247;-71
2022/06/16 10:58:48;;;;;;;;;;;;;;;36.72;14.20;100559.09;5357603;32;34452;-67
2022/06/16 11:01:53;;;;;;;;;;;;;;;37.92;12.87;100560.06;5341972;32;35013;-72
2022/06/16 11:04:57;;;;;;;;;;;;;;;38.53;12.83;100558.00;5357052;32;35495;-67
2022/06/16 11:08:07;;;;;;;;;;;;;;;36.00;15.05;100556.78;5345016;32;46598;-71
2022/06/16 11:11:39;;;;;;;;;;;;;;;35.05;15.91;100555.00;5338178;32;44783;-72
2022/06/16 11:14:44;;;;;;;;;;;;;;;38.23;13.28;100533.38;5355997;32;34662;-68
2022/06/16 11:17:47;;;;;;;;;;;;;;;38.57;12.89;100531.72;5342758;32;34334;-73
2022/06/16 11:20:50;;;;;;;;;;;;;;;36.68;14.28;100528.59;5353599;32;34248;-71
2022/06/16 11:23:54;;;;;;;;;;;;;;;40.11;11.65;100527.31;5344823;32;34263;-69
2022/06/16 11:27:10;;;;;;;;;;;;;;;41.27;10.54;100513.47;5350544;32;34253;-65
2022/06/16 11:30:33;;;;;;;;;;;;;;;36.67;14.23;100515.13;5352790;32;34999;-67
2022/06/16 11:36:58;;;;;;;;;;;;;;;39.38;12.28;100496.88;5348785;32;34376;-71
2022/06/16 11:40:03;;;;;;;;;;;;;;;38.64;12.94;100493.12;5321541;32;44906;-72
2022/06/16 11:43:08;;;;;;;;;;;;;;;40.55;11.56;100489.72;5349501;32;35143;-70
2022/06/16 11:46:26;;;;;;;;;;;;;;;41.17;10.92;100478.34;5353367;32;34325;-73
2022/06/16 11:49:36;;;;;;;;;;;;;;;42.29;10.09;100487.59;5345272;32;43246;-71
2022/06/16 11:52:44;;;;;;;;;;;;;;;42.27;9.67;100477.94;5358833;32;36550;-68
2022/06/16 11:55:46;;;;;;;;;;;;;;;39.60;11.74;100494.25;5343441;32;34728;-71
2022/06/16 11:58:48;;;;;;;;;;;;;;;36.82;13.78;100478.06;5350342;32;35342;-68
2022/06/16 12:01:56;;;;;;;;;;;;;;;36.74;13.94;100475.66;5349197;32;35703;-70
2022/06/16 12:05:03;;;;;;;;;;;;;;;37.88;12.84;100470.28;5341936;32;44489;-67
2022/06/16 12:08:25;;;;;;;;;;;;;;;34.67;15.63;100479.28;5352819;32;34893;-66
2022/06/16 12:11:40;;;;;;;;;;;;;;;33.56;17.08;100470.97;5340354;32;44774;-82
2022/06/16 12:15:14;;;;;;;;;;;;;;;33.74;16.85;100473.88;5345103;32;35668;-76
2022/06/16 12:18:37;;;;;;;;;;;;;;;33.26;17.26;100481.34;5357425;32;35548;-64
2022/06/16 12:21:40;;;;;;;;;;;;;;;32.78;17.52;100478.63;5343913;32;35378;-65
2022/06/16 12:24:43;;;;;;;;;;;;;;;31.42;19.25;100466.28;5360326;32;35054;-70
2022/06/16 12:27:54;;;;;;;;;;;;;;;33.31;16.98;100468.81;5344764;32;34998;-72
2022/06/16 12:31:01;;;;;;;;;;;;;;;32.04;18.12;100471.06;5320020;32;34219;-71
2022/06/16 12:34:09;;;;;;;;;;;;;;;32.11;18.24;100474.66;5359063;32;44405;-68
2022/06/16 12:37:13;;;;;;;;;;;;;;;32.71;17.55;100470.44;5345627;32;34442;-72
2022/06/16 12:40:18;;;;;;;;;;;;;;;32.97;17.21;100477.06;5337123;32;33684;-67
2022/06/16 12:43:25;;;;;;;;;;;;;;;32.98;17.57;100479.59;5346944;32;34225;-68
2022/06/16 12:46:33;;;;;;;;;;;;;;;32.11;17.96;100474.66;5349238;32;44612;-70
2022/06/16 12:49:36;;;;;;;;;;;;;;;32.54;17.51;100460.94;5352872;32;34138;-71
2022/06/16 12:52:39;;;;;;;;;;;;;;;31.79;18.34;100467.94;5332304;32;34859;-70
2022/06/16 12:55:41;;;;;;;;;;;;;;;31.48;18.76;100455.50;5357116;32;33033;-69
2022/06/16 12:59:13;;;;;;;;;;;;;;;32.05;18.24;100446.38;5348141;32;37262;-71
2022/06/16 13:02:19;;;;;;;;;;;;;;;32.28;17.94;100437.97;5340163;32;36212;-71
2022/06/16 13:05:24;;;;;;;;;;;;;;;31.39;18.95;100442.25;5351569;32;34282;-71
2022/06/16 13:08:27;;;;;;;;;;;;;;;32.69;17.20;100425.44;5339704;32;35519;-72
2022/06/16 13:11:37;;;;;;;;;;;;;;;32.92;16.92;100422.41;5357799;32;43748;-70
2022/06/16 13:14:47;;;;;;;;;;;;;;;31.78;18.04;100411.88;5343834;32;34379;-73
2022/06/16 13:17:53;;;;;;;;;;;;;;;31.93;17.98;100411.78;5354769;32;34269;-83
2022/06/16 13:21:02;;;;;;;;;;;;;;;32.07;17.56;100403.56;5342717;32;34229;-70
2022/06/16 13:24:10;;;;;;;;;;;;;;;32.86;16.92;100414.03;5342052;32;46792;-68
2022/06/16 13:27:23;;;;;;;;;;;;;;;31.69;18.25;100403.03;5354360;32;35501;-78
2022/06/16 13:30:35;;;;;;;;;;;;;;;31.78;18.08;100401.00;5345493;32;33788;-73
2022/06/16 13:34:00;;;;;;;;;;;;;;;32.20;17.59;100402.78;5357842;32;33637;-71
2022/06/16 13:37:02;;;;;;;;;;;;;;;32.60;17.59;100405.72;5339600;32;44601;-75
2022/06/16 13:40:04;;;;;;;;;;;;;;;31.61;18.42;100396.91;5323583;32;34309;-70
2022/06/16 13:43:06;;;;;;;;;;;;;;;30.43;19.69;100408.94;5350070;32;34705;-78
2022/06/16 13:46:08;;;;;;;;;;;;;;;30.30;19.63;100406.06;5343707;32;34300;-71
2022/06/16 13:49:16;;;;;;;;;;;;;;;30.58;19.45;100396.19;5360650;32;34346;-70
2022/06/16 13:52:24;;;;;;;;;;;;;;;30.54;19.83;100375.94;5343775;32;35141;-71
2022/06/16 13:55:30;;;;;;;;;;;;;;;30.05;20.14;100365.66;5350656;32;35133;-68
2022/06/16 13:58:33;;;;;;;;;;;;;;;30.37;19.75;100382.59;5345379;32;44398;-68
2022/06/16 14:01:55;;;;;;;;;;;;;;;31.83;17.92;100360.53;5337574;32;35511;-74
2022/06/16 14:05:05;;;;;;;;;;;;;;;32.19;17.75;100376.63;5352612;32;44863;-75
2022/06/16 14:08:12;;;;;;;;;;;;;;;31.97;18.28;100369.59;5337735;32;34332;-66
2022/06/16 14:11:22;;;;;;;;;;;;;;;31.70;18.31;100377.56;5353080;32;34400;-66
2022/06/16 14:14:24;;;;;;;;;;;;;;;32.77;17.01;100377.09;5348501;32;34999;-75
2022/06/16 14:17:35;;;;;;;;;;;;;;;32.52;17.18;100376.78;5340939;32;34559;-68
2022/06/16 14:20:37;;;;;;;;;;;;;;;31.80;18.36;100360.91;5358612;32;34792;-66
2022/06/16 14:23:40;;;;;;;;;;;;;;;32.71;17.51;100356.13;5343418;32;34573;-72
2022/06/16 14:26:45;;;;;;;;;;;;;;;32.97;17.56;100355.41;5357960;32;34234;-66
2022/06/16 14:29:47;;;;;;;;;;;;;;;31.75;18.91;100344.31;5342492;32;34678;-75
2022/06/16 14:32:59;;;;;;;;;;;;;;;31.93;18.76;100350.13;5342673;32;34944;-66
2022/06/16 14:36:07;;;;;;;;;;;;;;;31.52;19.20;100344.59;5343832;32;45203;-67
2022/06/16 14:39:21;;;;;;;;;;;;;;;31.60;19.39;100338.16;5331784;32;34757;-72
2022/06/16 14:42:28;;;;;;;;;;;;;;;31.97;18.96;100339.72;5350858;32;34986;-75
2022/06/16 14:45:32;;;;;;;;;;;;;;;31.26;19.65;100321.63;5345133;32;46694;-66
2022/06/16 14:48:36;;;;;;;;;;;;;;;31.43;19.64;100321.31;5351262;32;34790;-72
2022/06/16 14:51:38;;;;;;;;;;;;;;;31.96;18.98;100324.44;5357182;32;36086;-67
2022/06/16 14:55:03;;;;;;;;;;;;;;;31.34;19.68;100319.81;5342168;32;35000;-74
2022/06/16 14:58:05;;;;;;;;;;;;;;;31.20;20.20;100316.09;5348436;32;47060;-72
2022/06/16 15:01:08;;;;;;;;;;;;;;;31.25;20.02;100311.81;5345761;32;34858;-65
2022/06/16 15:04:11;;;;;;;;;;;;;;;32.02;18.94;100310.88;5355195;32;35681;-66
2022/06/16 15:07:14;;;;;;;;;;;;;;;32.03;19.56;100311.72;5348397;32;37110;-72
2022/06/16 15:10:17;;;;;;;;;;;;;;;32.22;19.22;100315.56;5342945;32;34301;-76
2022/06/16 15:13:20;;;;;;;;;;;;;;;31.04;20.96;100319.91;5354452;32;34678;-66
2022/06/16 15:19:48;;;;;;;;;;;;;;;31.38;20.75;100302.09;5357009;32;34876;-73
2022/06/16 15:22:50;;;;;;;;;;;;;;;31.33;21.18;100291.81;5342712;32;34903;-74
2022/06/16 15:25:57;;;;;;;;;;;;;;;31.96;20.81;100305.41;5343893;32;34831;-71
2022/06/16 15:29:00;;;;;;;;;;;;;;;32.67;19.73;100295.03;5353727;32;46591;-66
2022/06/16 15:32:03;;;;;;;;;;;;;;;31.45;21.27;100298.37;5344620;32;35699;-68
2022/06/16 15:38:34;;;;;;;;;;;;;;;31.02;21.77;100286.72;5335192;32;44580;-67
2022/06/16 15:41:38;;;;;;;;;;;;;;;30.40;22.87;100292.72;5334098;32;35737;-67
2022/06/16 15:44:41;;;;;;;;;;;;;;;31.11;22.17;100291.00;5353910;32;35783;-66
2022/06/16 15:47:44;;;;;;;;;;;;;;;31.08;22.45;100290.53;5343129;32;34859;-67
2022/06/16 15:50:46;;;;;;;;;;;;;;;31.22;22.35;100290.44;5360045;32;35391;-75
2022/06/16 15:53:48;;;;;;;;;;;;;;;31.18;22.33;100286.44;5343623;32;33825;-75
2022/06/16 15:56:54;;;;;;;;;;;;;;;30.65;23.36;100293.22;5359292;32;35362;-67
2022/06/16 15:59:57;;;;;;;;;;;;;;;31.11;22.59;100299.13;5345203;32;34986;-66
2022/06/16 16:02:59;;;;;;;;;;;;;;;31.19;22.04;100307.12;5329278;32;44871;-74
2022/06/16 16:06:02;;;;;;;;;;;;;;;31.12;22.42;100291.81;5360193;32;34623;-75
2022/06/16 16:09:07;;;;;;;;;;;;;;;31.13;22.34;100278.06;5341277;32;34734;-66
2022/06/16 16:12:18;;;;;;;;;;;;;;;30.94;22.88;100276.00;5355149;32;34964;-74
2022/06/16 16:15:20;;;;;;;;;;;;;;;31.59;21.96;100265.88;5341654;32;34846;-75
2022/06/16 16:18:22;;;;;;;;;;;;;;;31.15;22.48;100278.69;5355935;32;35720;-76
2022/06/16 16:21:24;;;;;;;;;;;;;;;31.18;22.55;100272.88;5343969;32;36039;-72